Time;durP1;ratioP1;P1;durP2;ratioP2;P2;SDS_P1;SDS_P2;PMS_P1;PMS_P2;Temp;Humidity;BMP_temperature;BMP_pressure;BME280_temperature;BME280_humidity;BME280_pressure;Samples;Min_cycle;Max_cycle;Signal;HPM_P1;HPM_P2
2021/12/05 00:20:38;;;;;;;0.47;0.10;;;;;;;7.28;100.00;98243.31;4930803;28;20058;-51
2021/12/05 00:23:47;;;;;;;0.13;0.13;;;;;;;6.95;100.00;98242.31;4943545;28;20053;-51
2021/12/05 00:26:57;;;;;;;0.28;0.28;;;;;;;6.96;100.00;98244.56;4931354;28;20522;-51
2021/12/05 00:40:57;;;;;;;0.10;0.00;;;;;;;5.80;100.00;98262.63;4969569;28;20299;-51
2021/12/05 00:57:04;;;;;;;0.45;0.35;;;;;;;6.69;100.00;98278.28;4966736;28;20277;-53
2021/12/05 01:13:43;;;;;;;0.38;0.38;;;;;;;6.91;100.00;98300.63;4957377;28;19973;-53
2021/12/05 01:57:08;;;;;;;0.30;0.30;;;;;;;6.62;100.00;98372.75;5054639;28;20052;-55
2021/12/05 02:43:47;;;;;;;0.10;0.10;;;;;;;6.70;100.00;98421.63;5024267;28;20052;-55
2021/12/05 02:47:03;;;;;;;0.20;0.20;;;;;;;6.70;100.00;98432.69;5029268;28;20052;-55
2021/12/05 02:50:11;;;;;;;0.10;0.10;;;;;;;6.68;100.00;98445.50;5033467;28;20053;-55
2021/12/05 02:53:20;;;;;;;0.10;0.10;;;;;;;6.66;100.00;98453.50;5033755;28;20136;-56
2021/12/05 02:56:24;;;;;;;0.25;0.25;;;;;;;6.68;100.00;98446.25;5034379;28;20100;-55
2021/12/05 03:02:43;;;;;;;0.30;0.30;;;;;;;6.62;100.00;98464.03;5028546;28;20051;-55
2021/12/05 03:05:51;;;;;;;0.10;0.10;;;;;;;6.54;100.00;98468.44;5072831;28;20404;-56
2021/12/05 03:09:06;;;;;;;0.43;0.43;;;;;;;6.57;100.00;98481.28;5052477;28;20092;-56
2021/12/05 03:12:16;;;;;;;0.17;0.17;;;;;;;6.64;100.00;98480.91;5050963;28;20144;-56
2021/12/05 03:15:20;;;;;;;0.13;0.13;;;;;;;6.57;100.00;98495.13;5054104;28;20059;-56
2021/12/05 03:18:24;;;;;;;0.20;0.20;;;;;;;6.42;100.00;98499.94;5011354;28;20056;-56
2021/12/05 03:21:27;;;;;;;0.45;0.45;;;;;;;6.45;100.00;98501.75;5026832;28;20575;-55
2021/12/05 03:24:30;;;;;;;0.20;0.20;;;;;;;6.44;100.00;98502.97;5016412;28;20051;-56
2021/12/05 03:27:34;;;;;;;0.30;0.30;;;;;;;6.40;100.00;98514.25;5025306;28;20140;-56
2021/12/05 03:30:37;;;;;;;0.20;0.20;;;;;;;6.38;100.00;98521.50;5044067;28;20078;-56
2021/12/05 03:33:40;;;;;;;0.13;0.13;;;;;;;6.41;100.00;98521.28;5018224;28;20113;-55
2021/12/05 03:36:48;;;;;;;0.10;0.10;;;;;;;6.42;100.00;98528.34;5033676;28;20076;-56
2021/12/05 03:39:51;;;;;;;0.13;0.13;;;;;;;6.51;100.00;98530.22;5030310;28;20460;-56
2021/12/05 03:42:56;;;;;;;0.20;0.20;;;;;;;6.48;100.00;98543.00;5014021;28;20060;-56
2021/12/05 03:45:59;;;;;;;0.52;0.52;;;;;;;6.57;100.00;98551.19;5036624;28;20056;-56
2021/12/05 03:49:09;;;;;;;0.30;0.30;;;;;;;6.57;100.00;98553.19;5031415;28;20129;-56
2021/12/05 03:52:15;;;;;;;0.20;0.20;;;;;;;6.58;100.00;98563.03;5009308;28;20048;-56
2021/12/05 03:55:19;;;;;;;0.20;0.20;;;;;;;6.56;100.00;98571.78;5019233;28;20052;-55
2021/12/05 03:58:24;;;;;;;0.20;0.20;;;;;;;6.55;100.00;98566.75;5031949;28;20520;-56
2021/12/05 04:01:27;;;;;;;0.30;0.30;;;;;;;6.51;100.00;98574.47;5032081;28;20390;-56
2021/12/05 04:04:30;;;;;;;0.20;0.20;;;;;;;6.50;100.00;98570.19;5036760;28;20133;-57
2021/12/05 04:07:33;;;;;;;0.10;0.10;;;;;;;6.45;100.00;98576.41;5032083;28;20056;-56
2021/12/05 04:10:38;;;;;;;0.20;0.20;;;;;;;6.48;100.00;98576.19;5013542;28;20068;-56
2021/12/05 04:13:43;;;;;;;0.10;0.10;;;;;;;6.47;100.00;98574.69;5005587;28;20084;-56
2021/12/05 04:16:46;;;;;;;0.68;0.68;;;;;;;6.44;100.00;98581.16;5012335;28;20611;-56
2021/12/05 04:19:50;;;;;;;0.10;0.10;;;;;;;6.37;100.00;98584.31;5043073;22;21151;-53
2021/12/05 04:22:53;;;;;;;0.22;0.22;;;;;;;6.48;100.00;98598.31;4988805;28;20089;-51
2021/12/05 04:25:56;;;;;;;0.17;0.17;;;;;;;6.42;100.00;98591.16;5006330;28;20057;-51
2021/12/05 04:28:59;;;;;;;0.22;0.22;;;;;;;6.45;100.00;98604.81;5001986;28;20064;-51
2021/12/05 04:32:03;;;;;;;0.20;0.20;;;;;;;6.46;100.00;98606.34;4984570;28;20091;-51
2021/12/05 04:35:07;;;;;;;1.00;0.50;;;;;;;6.46;100.00;98622.16;4992189;28;20410;-51
2021/12/05 04:38:10;;;;;;;0.77;0.10;;;;;;;6.45;100.00;98626.94;4959383;28;20057;-51
2021/12/05 04:41:15;;;;;;;0.63;0.45;;;;;;;6.45;100.00;98631.72;4952021;28;20065;-51
2021/12/05 04:44:20;;;;;;;0.10;0.10;;;;;;;6.44;100.00;98635.69;4930554;28;20166;-51
2021/12/05 04:47:23;;;;;;;0.20;0.20;;;;;;;6.41;100.00;98642.19;4964227;28;20493;-52
2021/12/05 04:50:28;;;;;;;0.20;0.20;;;;;;;6.37;100.00;98647.91;4970045;28;20057;-52
2021/12/05 04:53:32;;;;;;;2.45;0.40;;;;;;;6.35;100.00;98657.91;4958940;28;20505;-52
2021/12/05 04:56:35;;;;;;;0.10;0.10;;;;;;;6.33;100.00;98666.69;4935516;28;20061;-52
2021/12/05 04:59:44;;;;;;;0.25;0.20;;;;;;;5.43;100.00;98670.91;4980219;28;20139;-52
2021/12/05 05:02:47;;;;;;;0.30;0.30;;;;;;;5.36;100.00;98688.59;4969396;28;20406;-52
2021/12/05 05:05:58;;;;;;;0.20;0.20;;;;;;;5.84;100.00;98689.38;4957380;28;20278;-51
2021/12/05 05:09:02;;;;;;;0.10;0.10;;;;;;;5.21;100.00;98689.75;4952305;28;20093;-51
2021/12/05 05:12:06;;;;;;;0.93;0.38;;;;;;;5.08;100.00;98697.47;4933180;28;20079;-51
2021/12/05 05:15:12;;;;;;;1.00;0.10;;;;;;;5.06;100.00;98708.19;4988588;28;20112;-51
2021/12/05 05:18:15;;;;;;;3.03;0.63;;;;;;;5.58;100.00;98723.44;4959524;28;20600;-51
2021/12/05 05:44:13;;;;;;;0.20;0.20;;;;;;;6.32;100.00;98745.34;4891030;29;20093;-52
2021/12/05 05:50:25;;;;;;;0.10;0.10;;;;;;;6.33;100.00;98765.44;4871942;29;20091;-52
2021/12/05 05:53:28;;;;;;;12.07;2.03;;;;;;;6.33;100.00;98754.38;4893614;29;20072;-52
2021/12/05 05:56:33;;;;;;;1.75;0.30;;;;;;;6.37;100.00;98766.03;4971113;28;20121;-51
2021/12/05 05:59:47;;;;;;;0.15;0.15;;;;;;;6.38;100.00;98765.56;4989078;28;20061;-52
2021/12/05 06:06:13;;;;;;;0.10;0.10;;;;;;;5.38;100.00;98779.22;4946811;28;20069;-52
2021/12/05 06:09:17;;;;;;;0.10;0.10;;;;;;;6.15;100.00;98782.94;4958968;28;20061;-51
2021/12/05 06:12:20;;;;;;;0.20;0.20;;;;;;;6.35;100.00;98782.31;4964494;28;20060;-51
2021/12/05 06:15:25;;;;;;;0.30;0.30;;;;;;;6.34;100.00;98781.59;4928302;28;20086;-51
2021/12/05 06:18:28;;;;;;;0.10;0.10;;;;;;;6.34;100.00;98783.56;4915854;28;20091;-51
2021/12/05 06:21:31;;;;;;;0.20;0.20;;;;;;;6.40;100.00;98784.44;4908542;28;20066;-50
2021/12/05 06:24:34;;;;;;;0.17;0.17;;;;;;;6.44;100.00;98785.78;4917197;28;20075;-50
2021/12/05 06:27:37;;;;;;;0.40;0.40;;;;;;;6.45;100.00;98803.94;4925255;28;20191;-51
2021/12/05 06:31:07;;;;;;;5.88;0.43;;;;;;;6.42;100.00;98804.88;4937244;28;20121;-51
2021/12/05 06:47:27;;;;;;;30.88;1.23;;;;;;;6.49;100.00;98847.97;4977742;28;20437;-51
2021/12/05 06:50:30;;;;;;;0.75;0.75;;;;;;;6.55;100.00;98848.84;5018268;23;20057;-59
2021/12/05 06:53:33;;;;;;;0.20;0.20;;;;;;;6.60;100.00;98854.50;5013745;28;20064;-59
2021/12/05 06:56:36;;;;;;;0.30;0.30;;;;;;;6.61;100.00;98858.03;5046159;28;20076;-59
2021/12/05 06:59:41;;;;;;;1.05;0.25;;;;;;;6.55;100.00;98868.22;5053789;28;20052;-59
2021/12/05 07:02:44;;;;;;;0.15;0.15;;;;;;;6.51;100.00;98862.09;5033354;28;20053;-59
2021/12/05 07:05:55;;;;;;;0.43;0.40;;;;;;;6.50;100.00;98866.09;5033625;28;20060;-59
2021/12/05 07:09:07;;;;;;;0.20;0.20;;;;;;;6.51;100.00;98871.16;5044145;28;20184;-59
2021/12/05 07:21:42;;;;;;;0.20;0.20;;;;;;;6.49;100.00;98886.69;5010016;28;20084;-59
2021/12/05 07:24:49;;;;;;;1.00;0.43;;;;;;;6.52;100.00;98902.38;5051408;28;20055;-58
2021/12/05 07:44:23;;;;;;;1.45;0.40;;;;;;;6.57;100.00;98921.06;5032541;28;20052;-59
2021/12/05 07:47:30;;;;;;;0.20;0.20;;;;;;;6.58;100.00;98928.13;5029731;28;20088;-59
2021/12/05 07:50:44;;;;;;;0.50;0.30;;;;;;;6.67;100.00;98933.63;5019931;23;20073;-81
2021/12/05 07:54:12;;;;;;;0.22;0.22;;;;;;;6.58;100.00;98930.91;5003600;28;20100;-80
2021/12/05 08:00:38;;;;;;;6.50;0.43;;;;;;;6.62;100.00;98939.78;4989939;28;20049;-78
2021/12/05 08:17:17;;;;;;;0.20;0.20;;;;;;;6.80;100.00;98973.63;4989624;28;20107;-81
2021/12/05 08:20:28;;;;;;;0.10;0.10;;;;;;;6.87;100.00;98991.88;4991980;28;20054;-82
2021/12/05 08:23:31;;;;;;;0.30;0.20;;;;;;;6.91;100.00;98988.94;4992529;28;20049;-80
2021/12/05 08:26:35;;;;;;;0.40;0.20;;;;;;;6.91;100.00;98989.69;4992407;28;20049;-80
2021/12/05 08:33:14;;;;;;;0.35;0.25;;;;;;;6.94;100.00;98996.28;4992400;28;20042;-79
2021/12/05 09:08:32;;;;;;;0.43;0.30;;;;;;;6.84;100.00;99023.28;4992190;28;20050;-80
2021/12/05 09:27:14;;;;;;;0.10;0.10;;;;;;;6.97;100.00;99084.69;4990607;28;21063;-82
2021/12/05 09:30:41;;;;;;;17.95;0.57;;;;;;;6.91;100.00;99094.84;4991615;28;20188;-80
2021/12/05 10:10:41;;;;;;;1.58;0.25;;;;;;;7.38;100.00;99164.16;4995388;28;20447;-82
2021/12/05 10:38:15;;;;;;;0.20;0.20;;;;;;;7.45;100.00;99221.94;4994861;28;20049;-83
2021/12/05 10:44:43;;;;;;;0.10;0.10;;;;;;;7.54;100.00;99240.53;4994951;28;20049;-82
2021/12/05 10:47:51;;;;;;;0.30;0.30;;;;;;;7.62;100.00;99241.75;4994201;28;20741;-81
2021/12/05 10:50:58;;;;;;;17.20;0.45;;;;;;;7.76;100.00;99245.78;4994006;28;20073;-81
2021/12/05 10:54:07;;;;;;;0.50;0.50;;;;;;;7.85;100.00;99248.50;4993253;28;20593;-82
2021/12/05 10:57:13;;;;;;;0.20;0.20;;;;;;;7.90;100.00;99239.56;4993564;28;20053;-82
2021/12/05 11:00:18;;;;;;;0.35;0.35;;;;;;;7.97;100.00;99247.53;4993558;28;20069;-82
2021/12/05 11:03:22;;;;;;;1.17;0.75;;;;;;;8.07;100.00;99257.31;4993603;28;20061;-82
2021/12/05 11:06:35;;;;;;;0.30;0.30;;;;;;;8.18;100.00;99258.31;4993813;28;20499;-81
2021/12/05 11:09:40;;;;;;;0.32;0.32;;;;;;;8.22;100.00;99263.66;4993988;28;20042;-81
2021/12/05 11:12:43;;;;;;;0.77;0.50;;;;;;;8.17;100.00;99253.22;4993072;28;20072;-80
2021/12/05 11:15:46;;;;;;;0.20;0.20;;;;;;;8.25;100.00;99257.97;4993796;28;20100;-80
2021/12/05 11:18:50;;;;;;;0.10;0.10;;;;;;;8.21;100.00;99260.13;4993111;28;20072;-81
2021/12/05 11:22:17;;;;;;;0.52;0.52;;;;;;;8.22;100.00;99267.22;4993250;28;20073;-81
2021/12/05 11:25:29;;;;;;;0.40;0.40;;;;;;;8.17;100.00;99264.31;4992598;28;20046;-80
2021/12/05 11:28:32;;;;;;;0.28;0.28;;;;;;;8.24;100.00;99270.28;4994123;28;20102;-83
2021/12/05 11:31:36;;;;;;;0.10;0.10;;;;;;;8.25;100.00;99265.50;4993408;28;20053;-82
2021/12/05 11:34:38;;;;;;;0.20;0.20;;;;;;;8.28;100.00;99270.13;4992654;28;20085;-80
2021/12/05 11:38:02;;;;;;;0.25;0.25;;;;;;;8.24;100.00;99263.97;4992528;28;20069;-79
2021/12/05 11:41:08;;;;;;;0.30;0.30;;;;;;;8.12;100.00;99267.75;4992612;28;20050;-80
2021/12/05 11:44:17;;;;;;;7.78;0.45;;;;;;;8.09;100.00;99274.25;4992145;28;20049;-83
2021/12/05 11:47:23;;;;;;;0.13;0.13;;;;;;;8.06;100.00;99280.72;4997249;28;20580;-81
2021/12/05 11:50:35;;;;;;;1.75;0.88;;;;;;;8.12;100.00;99279.59;4993368;28;20100;-79
2021/12/05 11:53:58;;;;;;;;;;;;;;;8.11;100.00;99263.44;4993014;28;20094;-79
2021/12/05 11:57:03;;;;;;;0.25;0.15;;;;;;;8.03;100.00;99276.13;4992463;28;20158;-80
2021/12/05 12:00:14;;;;;;;0.32;0.30;;;;;;;8.21;100.00;99276.00;5003231;28;20412;-80
2021/12/05 12:03:32;;;;;;;0.30;0.17;;;;;;;8.13;100.00;99285.91;4993816;28;20076;-80
2021/12/05 12:06:35;;;;;;;0.40;0.40;;;;;;;8.17;100.00;99289.28;4993538;28;20318;-80
2021/12/05 12:09:39;;;;;;;1.35;0.63;;;;;;;8.16;100.00;99296.06;5003297;28;20117;-80
2021/12/05 12:12:54;;;;;;;0.20;0.20;;;;;;;8.30;100.00;99295.38;5003164;28;20042;-80
2021/12/05 12:16:00;;;;;;;0.10;0.10;;;;;;;8.34;100.00;99307.06;4992621;28;20112;-81
2021/12/05 12:19:06;;;;;;;0.30;0.30;;;;;;;8.28;100.00;99323.59;4992227;28;20511;-81
2021/12/05 12:22:21;;;;;;;;;;;;;;;8.39;100.00;99325.81;4992835;28;20046;-81
2021/12/05 12:25:28;;;;;;;8.45;0.82;;;;;;;8.41;100.00;99334.44;4992193;28;19979;-80
2021/12/05 12:28:31;;;;;;;0.85;0.28;;;;;;;8.45;100.00;99329.47;4991648;28;20577;-80
2021/12/05 12:31:37;;;;;;;0.28;0.20;;;;;;;8.53;100.00;99330.66;4992741;28;20049;-82
2021/12/05 12:34:41;;;;;;;0.20;0.20;;;;;;;8.62;100.00;99333.34;4993207;28;20057;-84
2021/12/05 12:38:08;;;;;;;0.25;0.25;;;;;;;8.73;100.00;99322.47;4992293;28;20049;-82
2021/12/05 12:41:16;;;;;;;0.20;0.20;;;;;;;8.79;100.00;99326.09;4992344;28;20057;-82
2021/12/05 12:44:19;;;;;;;0.20;0.20;;;;;;;8.74;100.00;99329.56;4992496;28;20072;-82
2021/12/05 12:47:32;;;;;;;0.10;0.10;;;;;;;8.67;100.00;99341.03;4984682;28;20045;-80
2021/12/05 12:50:53;;;;;;;0.57;0.55;;;;;;;8.69;100.00;99349.66;4991564;28;20050;-79
2021/12/05 12:54:01;;;;;;;0.30;0.30;;;;;;;8.74;100.00;99356.56;4991640;28;20053;-83
2021/12/05 12:57:13;;;;;;;2.58;0.52;;;;;;;8.64;100.00;99368.97;4990965;28;20054;-81
2021/12/05 13:00:16;;;;;;;0.88;0.45;;;;;;;8.55;100.00;99367.03;4991016;28;20045;-80
2021/12/05 13:04:04;;;;;;;1.50;0.52;;;;;;;8.51;100.00;99380.31;4991482;28;20104;-81
2021/12/05 13:10:46;;;;;;;16.08;0.60;;;;;;;8.52;100.00;99392.94;4992039;28;20135;-80
2021/12/05 13:14:07;;;;;;;0.40;0.40;;;;;;;8.49;100.00;99399.44;4991673;28;20064;-79
2021/12/05 13:17:10;;;;;;;0.40;0.40;;;;;;;8.46;100.00;99405.94;4990653;28;20046;-79
2021/12/05 13:20:18;;;;;;;2.08;0.93;;;;;;;8.36;100.00;99410.00;4991283;28;20764;-80
2021/12/05 13:23:31;;;;;;;5.93;1.20;;;;;;;8.29;100.00;99410.38;4991127;28;20507;-80
2021/12/05 13:26:33;;;;;;;5.32;0.68;;;;;;;8.24;100.00;99416.50;4991159;28;20072;-79
2021/12/05 13:29:47;;;;;;;11.07;1.08;;;;;;;8.23;100.00;99423.28;4991382;28;20053;-80
2021/12/05 13:33:19;;;;;;;2.35;0.70;;;;;;;8.25;100.00;99429.16;4991048;28;20100;-80
2021/12/05 13:36:33;;;;;;;0.88;0.40;;;;;;;8.27;100.00;99435.78;4990153;28;20070;-80
2021/12/05 13:39:52;;;;;;;1.85;0.93;;;;;;;8.34;100.00;99443.75;4990910;28;20523;-81
2021/12/05 13:43:03;;;;;;;2.10;0.85;;;;;;;8.44;100.00;99444.50;4991575;28;20049;-82
2021/12/05 13:46:31;;;;;;;7.27;1.73;;;;;;;8.49;100.00;99451.41;4991610;28;20072;-81
2021/12/05 13:49:36;;;;;;;5.88;1.33;;;;;;;8.56;100.00;99462.91;4990302;28;20050;-82
2021/12/05 13:52:41;;;;;;;2.15;0.88;;;;;;;8.53;100.00;99461.09;4991324;28;20122;-81
2021/12/05 13:56:03;;;;;;;2.13;1.48;;;;;;;8.52;100.00;99475.44;4990759;28;20188;-86
2021/12/05 13:59:06;;;;;;;9.30;0.90;;;;;;;8.49;100.00;99474.34;4990779;28;20089;-80
2021/12/05 14:02:11;;;;;;;0.90;0.38;;;;;;;8.40;100.00;99474.44;4989803;28;20566;-79
2021/12/05 14:05:28;;;;;;;1.58;0.30;;;;;;;8.43;100.00;99465.16;4989870;28;20072;-79
2021/12/05 14:08:31;;;;;;;0.10;0.10;;;;;;;8.45;100.00;99464.66;4990721;28;20049;-79
2021/12/05 14:11:42;;;;;;;0.30;0.30;;;;;;;8.45;100.00;99470.22;5000744;28;20057;-80
2021/12/05 14:14:55;;;;;;;0.68;0.65;;;;;;;8.48;100.00;99477.63;4990470;28;20455;-80
2021/12/05 14:17:58;;;;;;;1.73;0.98;;;;;;;8.45;100.00;99479.31;4990407;28;20507;-79
2021/12/05 14:21:18;;;;;;;0.43;0.43;;;;;;;8.51;100.00;99471.88;4990024;28;20052;-80
2021/12/05 14:24:24;;;;;;;6.72;0.43;;;;;;;8.54;100.00;99470.94;4990056;28;20554;-79
2021/12/05 14:27:31;;;;;;;1.00;0.40;;;;;;;8.58;100.00;99471.53;4992033;28;20089;-79
2021/12/05 14:30:35;;;;;;;4.68;0.70;;;;;;;8.62;100.00;99466.56;4993763;28;20065;-80
2021/12/05 14:33:50;;;;;;;3.65;2.03;;;;;;;8.64;100.00;99474.44;4993553;28;20061;-80
2021/12/05 14:37:10;;;;;;;1.13;0.88;;;;;;;8.59;100.00;99481.41;4993452;28;20045;-79
2021/12/05 14:40:15;;;;;;;0.63;0.20;;;;;;;8.62;100.00;99483.22;4993117;28;20057;-80
2021/12/05 14:43:19;;;;;;;1.45;0.57;;;;;;;8.56;100.00;99489.91;4993352;28;20093;-79
2021/12/05 14:46:22;;;;;;;3.05;0.52;;;;;;;8.54;100.00;99497.94;4993216;28;20046;-79
2021/12/05 14:49:29;;;;;;;1.38;0.75;;;;;;;8.52;100.00;99495.63;4994543;28;20089;-81
2021/12/05 14:52:35;;;;;;;0.52;0.43;;;;;;;8.50;100.00;99509.22;4994341;28;20041;-80
2021/12/05 14:55:38;;;;;;;0.30;0.22;;;;;;;8.49;100.00;99507.66;4993438;28;20045;-80
2021/12/05 14:58:44;;;;;;;1.00;0.22;;;;;;;8.50;100.00;99498.09;4993043;28;20562;-81
2021/12/05 15:01:51;;;;;;;2.17;0.40;;;;;;;8.55;100.00;99486.38;4992904;28;20048;-80
2021/12/05 15:04:54;;;;;;;0.10;0.10;;;;;;;8.51;100.00;99502.41;4994559;28;20089;-85
2021/12/05 15:08:04;;;;;;;1.20;0.75;;;;;;;8.47;100.00;99509.38;4993918;28;20038;-78
2021/12/05 15:11:08;;;;;;;1.45;0.15;;;;;;;8.45;100.00;99520.94;4993803;28;20543;-79
2021/12/05 15:14:11;;;;;;;1.05;0.80;;;;;;;8.49;100.00;99529.84;4993686;28;20105;-84
2021/12/05 15:17:17;;;;;;;0.52;0.40;;;;;;;8.31;100.00;99538.28;4992604;28;20049;-78
2021/12/05 15:20:24;;;;;;;0.28;0.28;;;;;;;8.24;100.00;99541.34;4993378;28;20632;-83
2021/12/05 15:23:29;;;;;;;0.73;0.52;;;;;;;8.13;100.00;99557.69;4994153;28;20141;-83
2021/12/05 15:26:33;;;;;;;0.25;0.25;;;;;;;8.10;100.00;99556.63;4993704;28;20234;-82
2021/12/05 15:29:36;;;;;;;0.40;0.40;;;;;;;8.08;100.00;99550.78;4993711;28;20045;-82
2021/12/05 15:32:39;;;;;;;0.73;0.73;;;;;;;8.04;100.00;99571.59;4993867;28;20112;-82
2021/12/05 15:35:43;;;;;;;0.43;0.43;;;;;;;7.98;100.00;99567.91;4992985;28;20046;-82
2021/12/05 15:38:46;;;;;;;0.30;0.30;;;;;;;7.82;100.00;99576.56;4992936;28;20045;-82
2021/12/05 15:41:55;;;;;;;0.40;0.28;;;;;;;7.72;100.00;99573.00;4993075;28;20101;-83
2021/12/05 15:45:02;;;;;;;0.70;0.30;;;;;;;7.66;100.00;99580.41;4993273;28;20517;-83
2021/12/05 15:48:05;;;;;;;2.08;0.30;;;;;;;7.60;100.00;99583.03;4993186;28;20096;-83
2021/12/05 15:51:12;;;;;;;3.08;0.82;;;;;;;7.61;100.00;99590.13;4993655;28;20177;-82
2021/12/05 15:54:15;;;;;;;1.80;0.70;;;;;;;7.75;100.00;99599.03;4993529;28;20041;-82
2021/12/05 15:57:29;;;;;;;0.30;0.30;;;;;;;7.82;100.00;99607.81;4993235;28;20122;-85
2021/12/05 16:00:45;;;;;;;0.50;0.50;;;;;;;7.81;100.00;99606.28;4994889;28;20044;-85
2021/12/05 16:03:59;;;;;;;0.30;0.30;;;;;;;7.86;100.00;99615.97;4994257;28;20464;-84
2021/12/05 16:07:02;;;;;;;0.40;0.30;;;;;;;7.83;100.00;99623.22;4993623;28;20105;-85
2021/12/05 16:10:14;;;;;;;11.10;1.33;;;;;;;7.79;100.00;99619.06;4993697;28;20511;-85
2021/12/05 16:13:24;;;;;;;1.25;0.82;;;;;;;7.78;100.00;99636.91;4994743;28;20196;-85
2021/12/05 16:16:28;;;;;;;0.55;0.55;;;;;;;7.81;100.00;99653.41;4993713;28;20380;-85
2021/12/05 16:19:33;;;;;;;5.68;0.95;;;;;;;7.86;100.00;99649.25;4993607;28;20515;-84
2021/12/05 16:23:27;;;;;;;0.63;0.47;;;;;;;7.69;100.00;99662.63;4994721;28;20113;-85
2021/12/05 16:26:31;;;;;;;1.70;0.50;;;;;;;7.55;100.00;99669.56;4987841;28;20049;-85
2021/12/05 16:29:36;;;;;;;3.30;1.25;;;;;;;7.63;100.00;99665.25;4993182;28;20044;-83
2021/12/05 16:32:39;;;;;;;2.10;1.15;;;;;;;7.73;100.00;99670.81;4992949;28;20045;-83
2021/12/05 16:35:49;;;;;;;0.45;0.45;;;;;;;7.67;100.00;99678.19;4993834;28;20106;-85
2021/12/05 16:38:52;;;;;;;1.10;0.70;;;;;;;7.58;100.00;99679.69;4992796;28;20132;-82
2021/12/05 16:41:59;;;;;;;8.05;1.77;;;;;;;7.42;100.00;99688.31;4999234;28;20099;-78
2021/12/05 16:45:03;;;;;;;0.95;0.75;;;;;;;7.54;100.00;99700.47;5009405;28;20840;-79
2021/12/05 16:48:06;;;;;;;8.57;1.15;;;;;;;7.59;100.00;99708.19;4991891;28;20104;-84
2021/12/05 16:51:16;;;;;;;11.05;2.63;;;;;;;7.52;100.00;99709.25;4990109;28;20088;-79
2021/12/05 16:54:53;;;;;;;3.03;1.45;;;;;;;7.67;100.00;99714.22;5002669;28;20041;-81
2021/12/05 16:58:14;;;;;;;1.55;0.85;;;;;;;7.57;100.00;99714.19;4991791;28;20508;-78
2021/12/05 17:01:20;;;;;;;1.30;0.55;;;;;;;7.62;100.00;99724.66;4991363;28;20725;-80
2021/12/05 17:04:56;;;;;;;0.32;0.32;;;;;;;7.64;100.00;99727.75;4991425;28;20073;-79
2021/12/05 17:08:09;;;;;;;1.20;1.10;;;;;;;7.56;100.00;99725.72;4988835;28;20045;-79
2021/12/05 17:11:17;;;;;;;3.33;0.90;;;;;;;7.60;100.00;99729.16;4982839;28;20066;-80
2021/12/05 17:14:24;;;;;;;3.70;0.60;;;;;;;7.54;100.00;99723.41;4994777;28;20045;-80
2021/12/05 17:17:32;;;;;;;1.20;1.13;;;;;;;7.43;100.00;99723.06;4991157;28;20562;-79
2021/12/05 17:20:42;;;;;;;4.55;1.23;;;;;;;7.33;100.00;99729.81;4990955;28;20527;-80
2021/12/05 17:23:58;;;;;;;3.03;0.98;;;;;;;6.93;100.00;99731.03;4971659;28;20054;-80
2021/12/05 17:27:06;;;;;;;0.30;0.30;;;;;;;6.73;100.00;99742.47;4971812;28;20441;-80
2021/12/05 17:30:10;;;;;;;0.40;0.30;;;;;;;7.04;100.00;99734.16;4989531;28;20049;-79
2021/12/05 17:33:36;;;;;;;0.30;0.30;;;;;;;7.22;100.00;99735.00;4990028;28;20060;-81
2021/12/05 17:36:50;;;;;;;1.05;0.73;;;;;;;7.23;100.00;99741.31;4971378;28;20065;-79
2021/12/05 17:39:54;;;;;;;1.75;0.77;;;;;;;7.17;100.00;99738.38;4981170;28;20124;-80
2021/12/05 17:42:57;;;;;;;0.45;0.43;;;;;;;7.15;100.00;99754.66;4997469;28;20049;-82
2021/12/05 17:46:00;;;;;;;0.45;0.43;;;;;;;7.08;100.00;99757.69;4982288;28;20088;-82
2021/12/05 17:49:06;;;;;;;1.70;0.75;;;;;;;7.03;100.00;99758.31;4984260;28;20438;-84
2021/12/05 17:52:13;;;;;;;0.50;0.38;;;;;;;7.18;100.00;99766.84;5000514;28;20458;-78
2021/12/05 17:55:23;;;;;;;0.77;0.55;;;;;;;7.25;100.00;99772.09;5009444;28;20052;-80
2021/12/05 18:05:10;;;;;;;6.13;0.95;;;;;;;7.38;100.00;99770.78;5014247;28;20049;-79
2021/12/05 18:08:18;;;;;;;1.88;1.55;;;;;;;7.33;100.00;99774.16;5014370;28;20073;-80
2021/12/05 18:11:23;;;;;;;6.18;2.10;;;;;;;7.24;100.00;99776.88;5025164;28;20517;-80
2021/12/05 18:14:27;;;;;;;8.40;2.38;;;;;;;7.12;100.00;99783.28;5015081;28;20133;-79
2021/12/05 18:17:30;;;;;;;7.78;2.72;;;;;;;7.15;100.00;99778.81;5015130;28;20431;-80
2021/12/05 18:20:35;;;;;;;7.22;1.20;;;;;;;7.19;100.00;99788.53;5015408;28;20139;-81
2021/12/05 18:23:38;;;;;;;9.25;1.92;;;;;;;7.15;100.00;99782.34;4975649;28;20534;-80
2021/12/05 18:26:42;;;;;;;1.83;1.02;;;;;;;7.13;100.00;99782.03;4977667;28;20042;-83
2021/12/05 18:29:45;;;;;;;5.95;1.13;;;;;;;6.95;100.00;99779.19;4993820;28;20085;-83
2021/12/05 18:32:50;;;;;;;7.13;1.30;;;;;;;7.07;100.00;99788.63;5016737;28;20041;-81
2021/12/05 18:35:53;;;;;;;7.28;1.98;;;;;;;7.07;100.00;99783.84;4988138;28;20555;-82
2021/12/05 18:38:57;;;;;;;1.60;0.88;;;;;;;7.21;100.00;99794.38;4990970;28;20040;-82
2021/12/05 18:42:06;;;;;;;2.70;1.50;;;;;;;7.37;100.00;99798.94;4988195;28;20136;-79
2021/12/05 18:45:13;;;;;;;10.10;0.90;;;;;;;7.29;100.00;99790.13;4996089;28;20093;-90
2021/12/05 18:48:16;;;;;;;1.50;1.40;;;;;;;7.21;100.00;99794.38;4993243;28;20085;-84
2021/12/05 18:51:21;;;;;;;6.28;3.00;;;;;;;7.13;100.00;99793.13;4993328;28;20089;-86
2021/12/05 18:54:24;;;;;;;3.85;2.25;;;;;;;7.15;100.00;99785.13;4993428;28;20049;-82
2021/12/05 18:57:27;;;;;;;6.78;1.70;;;;;;;7.14;100.00;99794.69;4993713;28;20069;-81
2021/12/05 19:00:40;;;;;;;10.45;2.35;;;;;;;7.16;100.00;99795.00;4989755;28;20088;-83
2021/12/05 19:07:18;;;;;;;6.13;2.65;;;;;;;7.06;100.00;99795.41;4992352;28;20389;-82
2021/12/05 19:13:44;;;;;;;5.72;0.45;;;;;;;7.06;100.00;99804.44;4990991;28;20096;-81
2021/12/05 19:16:50;;;;;;;0.90;0.40;;;;;;;7.11;100.00;99811.41;4985518;28;20093;-82
2021/12/05 19:22:42;;;;;;;1.05;0.75;;;;;;;7.05;100.00;99810.44;4173044;26;20469;-53
2021/12/05 19:25:46;;;;;;;3.05;1.80;;;;;;;6.95;100.00;99819.94;5034676;28;20068;-53
2021/12/05 19:28:59;;;;;;;;;;;;;;;;;;;;;
2021/12/05 19:32:06;;;;;;;2.50;0.57;;;;;;;6.78;100.00;99811.03;4920412;28;20063;-54
2021/12/05 19:35:10;;;;;;;1.42;0.52;;;;;;;6.78;100.00;99817.34;4954726;28;20059;-54
2021/12/05 19:38:14;;;;;;;9.43;1.40;;;;;;;6.69;100.00;99825.59;5010369;28;20058;-54
2021/12/05 19:41:18;;;;;;;0.75;0.75;;;;;;;6.80;100.00;99831.50;5002721;28;20095;-54
2021/12/05 19:44:26;;;;;;;1.30;0.63;;;;;;;6.84;100.00;99831.41;4983193;28;20077;-55
2021/12/05 19:47:29;;;;;;;4.40;1.05;;;;;;;6.68;100.00;99826.81;4998216;28;20061;-54
2021/12/05 19:50:37;;;;;;;1.30;1.20;;;;;;;6.86;100.00;99837.25;5015969;28;20492;-54
2021/12/05 19:53:42;;;;;;;3.55;1.83;;;;;;;6.90;100.00;99840.66;4979403;28;20532;-53
2021/12/05 19:56:46;;;;;;;2.50;1.60;;;;;;;6.91;100.00;99838.69;5038584;28;20055;-54
2021/12/05 19:59:49;;;;;;;1.75;1.13;;;;;;;6.79;100.00;99845.81;5051079;28;20440;-53
2021/12/05 20:02:52;;;;;;;0.43;0.43;;;;;;;6.89;100.00;99844.66;5051409;28;20512;-55
2021/12/05 20:05:56;;;;;;;0.70;0.47;;;;;;;6.90;100.00;99832.34;5027386;28;20692;-48
2021/12/05 20:08:59;;;;;;;2.60;0.80;;;;;;;6.94;100.00;99840.53;5021374;28;20048;-48
2021/12/05 20:12:03;;;;;;;0.47;0.47;;;;;;;6.95;100.00;99842.88;5035908;28;20059;-48
2021/12/05 20:15:08;;;;;;;0.75;0.60;;;;;;;6.62;100.00;99845.22;4966046;28;20561;-48
2021/12/05 20:18:13;;;;;;;3.10;1.75;;;;;;;6.60;100.00;99846.91;4949245;28;20065;-48
2021/12/05 20:21:16;;;;;;;9.98;1.60;;;;;;;6.79;100.00;99845.81;4941853;28;20440;-48
2021/12/05 20:24:21;;;;;;;3.05;1.98;;;;;;;6.80;100.00;99852.88;4943264;28;20137;-48
2021/12/05 20:27:24;;;;;;;3.05;0.95;;;;;;;6.82;100.00;99856.00;4933415;28;20612;-48
2021/12/05 20:30:29;;;;;;;3.08;1.92;;;;;;;6.92;100.00;99854.81;4970167;28;20045;-48
2021/12/05 20:33:34;;;;;;;0.60;0.60;;;;;;;6.90;100.00;99851.75;4945327;28;20109;-54
2021/12/05 20:36:38;;;;;;;2.42;1.27;;;;;;;6.87;100.00;99847.09;4969225;28;20100;-49
2021/12/05 20:39:41;;;;;;;2.92;1.52;;;;;;;6.67;100.00;99836.34;4927930;28;20054;-54
2021/12/05 20:42:50;;;;;;;3.55;1.15;;;;;;;6.44;100.00;99842.28;4945943;28;20057;-54
2021/12/05 20:45:54;;;;;;;3.78;0.77;;;;;;;6.18;100.00;99835.28;4959630;28;20484;-54
2021/12/05 20:48:57;;;;;;;1.02;0.45;;;;;;;5.87;100.00;99840.66;5027140;28;20094;-54